Ilkley, United Kingdom
Current Conditions -  °F | °C
As of 10:50 PM on Thursday 23 Oct 2014 (Local Time) from EGNM Reporting Station
Scattered Clouds Scattered Clouds  
Wind Chill: 55°   Ceiling: Unl
Heat Index: 55°   Visibility: 6mi
Dew Point: 52°   Wind: 12mph
Humidity: 88%   Direction: 240°WSW
Pressure: 29.85"   Gusts: NA
Location:  53.92°N, 1.82°W
Report Text: EGNM 232150Z 24010KT 210V270 9999 FEW012 SCT032 13/11 Q1011
Loading
Personal Weather Stations






























Interactive Weather Map
Tropical Storm Tracking
New forecast layout! Learn more

10-Day Weather Forecast

Advertisements
Track Severe Weather on mobile